Time;durP1;ratioP1;P1;durP2;ratioP2;P2;SDS_P1;SDS_P2;PMS_P1;PMS_P2;Temp;Humidity;BMP_temperature;BMP_pressure;BME280_temperature;BME280_humidity;BME280_pressure;Samples;Min_cycle;Max_cycle;Signal;HPM_P1;HPM_P2
2023/11/16 00:01:47;;;;;;;;;;;;;;;;;;5052934;28;4441;-54
2023/11/16 00:04:43;;;;;;;;;;;;;;;;;;5062385;28;4578;-54
2023/11/16 00:07:15;;;;;;;;;;;;;;;;;;5048970;28;4681;-53
2023/11/16 00:09:40;;;;;;;;;;;;;;;;;;5052368;28;4999;-54
2023/11/16 00:12:06;;;;;;;;;;;;;;;;;;5050628;28;4627;-53
2023/11/16 00:20:38;;;;;;;;;;;;;;;;;;5065866;28;4709;-53
2023/11/16 00:26:09;;;;;;;;;;;;;;;;;;5053805;28;5040;-53
2023/11/16 00:28:35;;;;;;;;;;;;;;;;;;5034382;28;5069;-53
2023/11/16 00:31:01;;;;;;;;;;;;;;;;;;5017333;28;4915;-53
2023/11/16 00:33:26;;;;;;;;;;;;;;;;;;5060995;28;4472;-53
2023/11/16 00:35:55;;;;;;;;;;;;;;;;;;5053684;28;1909;-52
2023/11/16 00:38:21;;;;;;;;;;;;;;;;;;5055361;28;4706;-52
2023/11/16 00:40:47;;;;;;;;;;;;;;;;;;5050587;28;4488;-53
2023/11/16 00:43:50;;;;;;;;;;;;;;;;;;5034679;28;4621;-51
2023/11/16 00:46:23;;;;;;;;;;;;;;;;;;5053669;28;5131;-52
2023/11/16 00:48:48;;;;;;;;;;;;;;;;;;5051564;28;4604;-52
2023/11/16 00:51:14;;;;;;;;;;;;;;;;;;5053440;28;4756;-52
2023/11/16 00:53:42;;;;;;;;;;;;;;;;;;5036775;28;1562;-53
2023/11/16 00:56:11;;;;;;;;;;;;;;;;;;5053568;28;4474;-53
2023/11/16 00:58:45;;;;;;;;;;;;;;;;;;5057109;28;4994;-53
2023/11/16 01:01:18;;;;;;;;;;;;;;;;;;5039856;28;4967;-52
2023/11/16 01:03:43;;;;;;;;;;;;;;;;;;5053242;28;4669;-53
2023/11/16 01:06:08;;;;;;;;;;;;;;;;;;5055547;28;5459;-53
2023/11/16 01:11:51;;;;;;;;;;;;;;;;;;5057622;28;4783;-51
2023/11/16 01:17:21;;;;;;;;;;;;;;;;;;5054777;28;4614;-56
2023/11/16 01:23:16;;;;;;;;;;;;;;;;;;5051639;28;4597;-50
2023/11/16 01:25:51;;;;;;;;;;;;;;;;;;5054207;28;4641;-54
2023/11/16 01:31:21;;;;;;;;;;;;;;;;;;5051723;28;4662;-55
2023/11/16 01:33:46;;;;;;;;;;;;;;;;;;5052663;28;4476;-53
2023/11/16 01:36:11;;;;;;;;;;;;;;;;;;5065641;28;5052;-52
2023/11/16 01:39:09;;;;;;;;;;;;;;;;;;5057290;28;1116;-53
2023/11/16 01:41:35;;;;;;;;;;;;;;;;;;5052960;28;4425;-56
2023/11/16 01:44:18;;;;;;;;;;;;;;;;;;5053673;28;5130;-51
2023/11/16 01:46:43;;;;;;;;;;;;;;;;;;5027995;28;4632;-55
2023/11/16 01:49:09;;;;;;;;;;;;;;;;;;5028560;28;4466;-54
2023/11/16 01:51:37;;;;;;;;;;;;;;;;;;5034318;28;4691;-53
2023/11/16 01:54:02;;;;;;;;;;;;;;;;;;5041533;28;4793;-54
2023/11/16 01:56:52;;;;;;;;;;;;;;;;;;5055042;28;1954;-54
2023/11/16 02:02:51;;;;;;;;;;;;;;;;;;5053300;28;4956;-52
2023/11/16 02:05:16;;;;;;;;;;;;;;;;;;5055364;28;4994;-53
2023/11/16 02:07:42;;;;;;;;;;;;;;;;;;5038233;28;5037;-52
2023/11/16 02:10:07;;;;;;;;;;;;;;;;;;5039479;28;4595;-53
2023/11/16 02:12:32;;;;;;;;;;;;;;;;;;5035639;28;4506;-53
2023/11/16 02:14:58;;;;;;;;;;;;;;;;;;5036502;28;1910;-54
2023/11/16 02:17:23;;;;;;;;;;;;;;;;;;5036523;28;5057;-53
2023/11/16 02:19:48;;;;;;;;;;;;;;;;;;5052330;28;4637;-53
2023/11/16 02:22:14;;;;;;;;;;;;;;;;;;5016014;28;4886;-53
2023/11/16 02:24:47;;;;;;;;;;;;;;;;;;5036833;28;5055;-54
2023/11/16 02:27:12;;;;;;;;;;;;;;;;;;5045412;28;5113;-52
2023/11/16 02:29:47;;;;;;;;;;;;;;;;;;5024704;28;1091;-51
2023/11/16 02:32:13;;;;;;;;;;;;;;;;;;5054874;28;4824;-53
2023/11/16 02:34:39;;;;;;;;;;;;;;;;;;5052567;28;4590;-53
2023/11/16 02:37:05;;;;;;;;;;;;;;;;;;5052912;28;5167;-54
2023/11/16 02:39:31;;;;;;;;;;;;;;;;;;5034271;28;4690;-54
2023/11/16 02:41:59;;;;;;;;;;;;;;;;;;5052311;28;997;-50
2023/11/16 02:47:33;;;;;;;;;;;;;;;;;;5059127;28;4976;-50
2023/11/16 02:49:58;;;;;;;;;;;;;;;;;;5034949;28;4977;-51
2023/11/16 02:52:24;;;;;;;;;;;;;;;;;;5064126;28;5102;-52
2023/11/16 02:54:49;;;;;;;;;;;;;;;;;;5059012;28;4891;-52
2023/11/16 03:03:39;;;;;;;;;;;;;;;;;;5051699;28;5080;-51
2023/11/16 03:06:26;;;;;;;;;;;;;;;;;;5051617;28;4623;-53
2023/11/16 03:08:52;;;;;;;;;;;;;;;;;;5057607;28;1132;-53
2023/11/16 03:11:17;;;;;;;;;;;;;;;;;;5050985;28;4588;-53
2023/11/16 03:13:43;;;;;;;;;;;;;;;;;;5052155;28;4514;-53
2023/11/16 03:16:08;;;;;;;;;;;;;;;;;;5053474;28;5014;-57
2023/11/16 03:18:35;;;;;;;;;;;;;;;;;;5050757;28;5057;-52
2023/11/16 03:21:00;;;;;;;;;;;;;;;;;;5034520;28;1744;-52
2023/11/16 03:23:26;;;;;;;;;;;;;;;;;;5035754;28;5151;-52
2023/11/16 03:25:53;;;;;;;;;;;;;;;;;;5030560;28;4903;-52
2023/11/16 03:28:19;;;;;;;;;;;;;;;;;;5052485;28;5012;-54
2023/11/16 03:30:44;;;;;;;;;;;;;;;;;;5048431;28;4865;-52
2023/11/16 03:33:11;;;;;;;;;;;;;;;;;;5050576;28;4877;-52
2023/11/16 03:35:37;;;;;;;;;;;;;;;;;;5067628;28;1973;-54
2023/11/16 03:38:02;;;;;;;;;;;;;;;;;;5056198;28;4937;-52
2023/11/16 03:40:30;;;;;;;;;;;;;;;;;;5060405;28;4863;-53
2023/11/16 03:43:28;;;;;;;;;;;;;;;;;;5030547;28;4494;-51
2023/11/16 03:48:57;;;;;;;;;;;;;;;;;;5052853;28;4919;-53
2023/11/16 03:51:57;;;;;;;;;;;;;;;;;;5053631;28;4642;-52
2023/11/16 03:54:33;;;;;;;;;;;;;;;;;;5048524;28;5160;-51
2023/11/16 04:00:32;;;;;;;;;;;;;;;;;;5060312;28;5050;-53
2023/11/16 04:03:07;;;;;;;;;;;;;;;;;;5072990;28;926;-53
2023/11/16 04:05:32;;;;;;;;;;;;;;;;;;5053934;28;4604;-50
2023/11/16 04:07:57;;;;;;;;;;;;;;;;;;5052094;28;4419;-53
2023/11/16 04:10:22;;;;;;;;;;;;;;;;;;5074235;28;5037;-52
2023/11/16 04:12:48;;;;;;;;;;;;;;;;;;5069988;28;4837;-51
2023/11/16 04:15:25;;;;;;;;;;;;;;;;;;5057541;28;5030;-52
2023/11/16 04:17:51;;;;;;;;;;;;;;;;;;5052370;28;2047;-50
2023/11/16 04:20:16;;;;;;;;;;;;;;;;;;5066928;28;4924;-52
2023/11/16 04:22:43;;;;;;;;;;;;;;;;;;5056449;28;4955;-53
2023/11/16 04:25:18;;;;;;;;;;;;;;;;;;5054931;28;4515;-50
2023/11/16 04:27:45;;;;;;;;;;;;;;;;;;5058735;28;4429;-52
2023/11/16 04:33:33;;;;;;;;;;;;;;;;;;5053335;28;4915;-50
2023/11/16 04:35:59;;;;;;;;;;;;;;;;;;5057070;28;1914;-52
2023/11/16 04:38:27;;;;;;;;;;;;;;;;;;5057531;28;5308;-51
2023/11/16 04:40:52;;;;;;;;;;;;;;;;;;5053675;28;5001;-51
2023/11/16 04:43:18;;;;;;;;;;;;;;;;;;5053836;28;5092;-55
2023/11/16 04:45:46;;;;;;;;;;;;;;;;;;5055879;28;5016;-53
2023/11/16 04:48:11;;;;;;;;;;;;;;;;;;5038785;28;4465;-54
2023/11/16 04:50:38;;;;;;;;;;;;;;;;;;5053975;28;1187;-54
2023/11/16 04:53:03;;;;;;;;;;;;;;;;;;5053769;28;5105;-54
2023/11/16 04:55:29;;;;;;;;;;;;;;;;;;5069087;28;4490;-54
2023/11/16 04:57:54;;;;;;;;;;;;;;;;;;5055318;28;4389;-55
2023/11/16 05:00:19;;;;;;;;;;;;;;;;;;5055519;28;4965;-54
2023/11/16 05:02:45;;;;;;;;;;;;;;;;;;5060246;28;1300;-51
2023/11/16 05:05:10;;;;;;;;;;;;;;;;;;5075686;28;4823;-53
2023/11/16 05:07:35;;;;;;;;;;;;;;;;;;5059391;28;5030;-54
2023/11/16 05:10:01;;;;;;;;;;;;;;;;;;5054396;28;4958;-54
2023/11/16 05:12:27;;;;;;;;;;;;;;;;;;5055167;28;4629;-53
2023/11/16 05:14:53;;;;;;;;;;;;;;;;;;5053541;28;1985;-54
2023/11/16 05:17:19;;;;;;;;;;;;;;;;;;5053515;28;4467;-52
2023/11/16 05:19:45;;;;;;;;;;;;;;;;;;5054322;28;5057;-53
2023/11/16 05:22:28;;;;;;;;;;;;;;;;;;5065413;28;4462;-55
2023/11/16 05:24:53;;;;;;;;;;;;;;;;;;5064641;28;5076;-52
2023/11/16 05:27:19;;;;;;;;;;;;;;;;;;5065509;28;4878;-53
2023/11/16 05:29:45;;;;;;;;;;;;;;;;;;5052958;28;4803;-53
2023/11/16 05:32:29;;;;;;;;;;;;;;;;;;5049707;28;4456;-54
2023/11/16 05:34:55;;;;;;;;;;;;;;;;;;5051607;28;4824;-50
2023/11/16 05:43:26;;;;;;;;;;;;;;;;;;5056075;28;5022;-54
2023/11/16 05:45:51;;;;;;;;;;;;;;;;;;5052910;28;5330;-51
2023/11/16 05:48:17;;;;;;;;;;;;;;;;;;5054277;28;4954;-55
2023/11/16 05:50:42;;;;;;;;;;;;;;;;;;5043184;28;3075;-54
2023/11/16 05:53:09;;;;;;;;;;;;;;;;;;5040700;28;5064;-54
2023/11/16 05:55:35;;;;;;;;;;;;;;;;;;5064087;28;5068;-54
2023/11/16 05:58:00;;;;;;;;;;;;;;;;;;5051853;28;4747;-52
2023/11/16 06:00:47;;;;;;;;;;;;;;;;;;5054231;28;4847;-52
2023/11/16 06:03:13;;;;;;;;;;;;;;;;;;5053459;28;4503;-52
2023/11/16 06:05:39;;;;;;;;;;;;;;;;;;5047384;28;990;-56
2023/11/16 06:14:21;;;;;;;;;;;;;;;;;;5050920;28;4509;-55
2023/11/16 06:16:48;;;;;;;;;;;;;;;;;;5051055;28;4976;-56
2023/11/16 06:19:16;;;;;;;;;;;;;;;;;;5019441;28;4944;-55
2023/11/16 06:24:44;;;;;;;;;;;;;;;;;;5052753;28;4844;-56
2023/11/16 06:27:09;;;;;;;;;;;;;;;;;;5051764;28;4761;-56
2023/11/16 06:29:35;;;;;;;;;;;;;;;;;;5054274;28;4565;-56
2023/11/16 06:32:05;;;;;;;;;;;;;;;;;;5051178;28;4953;-55
2023/11/16 06:34:30;;;;;;;;;;;;;;;;;;5052829;28;4927;-56
2023/11/16 06:36:55;;;;;;;;;;;;;;;;;;5051944;28;4483;-55
2023/11/16 06:39:22;;;;;;;;;;;;;;;;;;5061156;28;5005;-56
2023/11/16 06:44:50;;;;;;;;;;;;;;;;;;5055826;28;4564;-55
2023/11/16 06:47:15;;;;;;;;;;;;;;;;;;5053997;28;4827;-55
2023/11/16 06:49:41;;;;;;;;;;;;;;;;;;5036983;28;4939;-54
2023/11/16 06:52:06;;;;;;;;;;;;;;;;;;5054910;28;5029;-55
2023/11/16 06:57:34;;;;;;;;;;;;;;;;;;5055091;28;4503;-55
2023/11/16 07:00:01;;;;;;;;;;;;;;;;;;5055260;28;1091;-55
2023/11/16 07:02:27;;;;;;;;;;;;;;;;;;5055195;28;4510;-55
2023/11/16 07:04:52;;;;;;;;;;;;;;;;;;5059922;28;5068;-55
2023/11/16 07:07:18;;;;;;;;;;;;;;;;;;5074315;28;4944;-56
2023/11/16 07:09:46;;;;;;;;;;;;;;;;;;5073310;28;4500;-55
2023/11/16 07:12:12;;;;;;;;;;;;;;;;;;5055403;28;4623;-55
2023/11/16 07:14:38;;;;;;;;;;;;;;;;;;5064409;28;1902;-54
2023/11/16 07:17:04;;;;;;;;;;;;;;;;;;5029620;28;4517;-55
2023/11/16 07:19:29;;;;;;;;;;;;;;;;;;5051705;28;4424;-55
2023/11/16 07:24:47;;;;;;;;;;;;;;;;;;5050679;28;4454;-56
2023/11/16 07:27:13;;;;;;;;;;;;;;;;;;5048699;28;5059;-55
2023/11/16 07:29:39;;;;;;;;;;;;;;;;;;5033955;28;4961;-56
2023/11/16 07:32:15;;;;;;;;;;;;;;;;;;5049790;28;4656;-55
2023/11/16 07:35:14;;;;;;;;;;;;;;;;;;5050124;28;4698;-56
2023/11/16 07:40:52;;;;;;;;;;;;;;;;;;5049776;28;4651;-56
2023/11/16 07:43:54;;;;;;;;;;;;;;;;;;5049568;28;4498;-55
2023/11/16 07:46:20;;;;;;;;;;;;;;;;;;5057571;28;4471;-55
2023/11/16 07:48:46;;;;;;;;;;;;;;;;;;5063128;28;5050;-56
2023/11/16 07:51:12;;;;;;;;;;;;;;;;;;5050062;28;5035;-55
2023/11/16 07:53:40;;;;;;;;;;;;;;;;;;5048663;28;1208;-56
2023/11/16 07:56:05;;;;;;;;;;;;;;;;;;5038230;28;5087;-55
2023/11/16 07:58:39;;;;;;;;;;;;;;;;;;5049884;28;5023;-55
2023/11/16 08:07:10;;;;;;;;;;;;;;;;;;5047707;28;4971;-54
2023/11/16 08:10:09;;;;;;;;;;;;;;;;;;5052192;28;4920;-54
2023/11/16 08:16:15;;;;;;;;;;;;;;;;;;5049796;28;4650;-55
2023/11/16 08:27:54;;;;;;;;;;;;;;;;;;5050729;28;4577;-56
2023/11/16 08:30:53;;;;;;;;;;;;;;;;;;5032448;28;4889;-56
2023/11/16 08:36:40;;;;;;;;;;;;;;;;;;5052436;28;4673;-55
2023/11/16 08:39:08;;;;;;;;;;;;;;;;;;5051490;28;4454;-54
2023/11/16 08:41:33;;;;;;;;;;;;;;;;;;5052035;28;1138;-53
2023/11/16 08:47:09;;;;;;;;;;;;;;;;;;5059608;28;5031;-53
2023/11/16 08:49:50;;;;;;;;;;;;;;;;;;5032319;28;5130;-53
2023/11/16 08:52:17;;;;;;;;;;;;;;;;;;5051057;28;4442;-54
2023/11/16 08:54:43;;;;;;;;;;;;;;;;;;5033964;28;5148;-56
2023/11/16 08:57:08;;;;;;;;;;;;;;;;;;5063604;28;4950;-56
2023/11/16 08:59:35;;;;;;;;;;;;;;;;;;5057912;28;1418;-56
2023/11/16 09:02:01;;;;;;;;;;;;;;;;;;5070331;28;5233;-55
2023/11/16 09:04:28;;;;;;;;;;;;;;;;;;5036572;28;5070;-56
2023/11/16 09:07:16;;;;;;;;;;;;;;;;;;5060292;28;5060;-55
2023/11/16 09:09:42;;;;;;;;;;;;;;;;;;5053891;28;5061;-56
2023/11/16 09:15:10;;;;;;;;;;;;;;;;;;5057330;28;5113;-55
2023/11/16 09:17:36;;;;;;;;;;;;;;;;;;5049806;28;983;-56
2023/11/16 09:20:04;;;;;;;;;;;;;;;;;;5049899;28;4686;-56
2023/11/16 09:22:30;;;;;;;;;;;;;;;;;;5067202;28;5307;-56
2023/11/16 09:25:00;;;;;;;;;;;;;;;;;;5055121;28;4869;-56
2023/11/16 09:27:26;;;;;;;;;;;;;;;;;;5035122;28;4660;-55
2023/11/16 09:29:52;;;;;;;;;;;;;;;;;;5054572;28;1084;-56
2023/11/16 09:32:21;;;;;;;;;;;;;;;;;;5062768;28;5080;-55
2023/11/16 09:47:05;;;;;;;;;;;;;;;;;;5054901;28;5051;-54
2023/11/16 09:49:31;;;;;;;;;;;;;;;;;;5033500;28;4659;-55
2023/11/16 09:51:59;;;;;;;;;;;;;;;;;;5054348;28;5069;-56
2023/11/16 09:57:52;;;;;;;;;;;;;;;;;;5050093;28;4761;-55
2023/11/16 10:00:20;;;;;;;;;;;;;;;;;;5050910;28;4633;-54
2023/11/16 10:02:52;;;;;;;;;;;;;;;;;;5034566;28;2231;-55
2023/11/16 10:05:47;;;;;;;;;;;;;;;;;;5051923;28;4548;-57
2023/11/16 10:08:33;;;;;;;;;;;;;;;;;;5051438;28;5105;-56
2023/11/16 10:11:05;;;;;;;;;;;;;;;;;;5051486;28;4853;-55
2023/11/16 10:16:33;;;;;;;;;;;;;;;;;;5075854;28;5065;-55
2023/11/16 10:18:59;;;;;;;;;;;;;;;;;;5070645;28;5204;-54
2023/11/16 10:21:25;;;;;;;;;;;;;;;;;;5036227;28;5157;-55
2023/11/16 10:23:57;;;;;;;;;;;;;;;;;;5054854;28;1083;-55
2023/11/16 10:26:22;;;;;;;;;;;;;;;;;;5036458;28;4499;-56
2023/11/16 10:28:53;;;;;;;;;;;;;;;;;;5050912;28;4560;-56
2023/11/16 10:31:21;;;;;;;;;;;;;;;;;;5048847;28;4556;-55
2023/11/16 10:33:47;;;;;;;;;;;;;;;;;;5033287;28;4776;-55
2023/11/16 10:36:12;;;;;;;;;;;;;;;;;;5051424;28;4498;-55
2023/11/16 10:38:37;;;;;;;;;;;;;;;;;;5032352;28;1321;-55
2023/11/16 10:41:03;;;;;;;;;;;;;;;;;;5037174;28;5013;-56
2023/11/16 10:43:28;;;;;;;;;;;;;;;;;;5034003;28;5213;-56
2023/11/16 10:45:54;;;;;;;;;;;;;;;;;;5035022;28;5382;-57
2023/11/16 10:48:20;;;;;;;;;;;;;;;;;;5048859;28;4478;-55
2023/11/16 10:50:45;;;;;;;;;;;;;;;;;;5037436;28;1219;-56
2023/11/16 10:53:17;;;;;;;;;;;;;;;;;;5065244;28;4383;-54
2023/11/16 11:02:24;;;;;;;;;;;;;;;;;;5050714;28;5116;-54
2023/11/16 11:04:50;;;;;;;;;;;;;;;;;;5052777;28;4690;-55
2023/11/16 11:07:17;;;;;;;;;;;;;;;;;;5020068;28;4614;-55
2023/11/16 11:09:44;;;;;;;;;;;;;;;;;;5054819;28;4601;-56
2023/11/16 11:12:15;;;;;;;;;;;;;;;;;;5058225;28;4971;-55
2023/11/16 11:14:51;;;;;;;;;;;;;;;;;;5050830;28;1964;-54
2023/11/16 11:17:35;;;;;;;;;;;;;;;;;;5034213;28;5008;-55
2023/11/16 11:20:08;;;;;;;;;;;;;;;;;;5050908;28;4993;-57
2023/11/16 11:22:34;;;;;;;;;;;;;;;;;;5050718;28;4976;-56
2023/11/16 11:24:59;;;;;;;;;;;;;;;;;;5048234;28;4445;-56
2023/11/16 11:27:28;;;;;;;;;;;;;;;;;;5051289;28;4722;-54
2023/11/16 11:29:54;;;;;;;;;;;;;;;;;;5052398;28;1176;-56
2023/11/16 11:32:28;;;;;;;;;;;;;;;;;;5072705;28;4614;-55
2023/11/16 11:34:53;;;;;;;;;;;;;;;;;;5052159;28;5223;-54
2023/11/16 11:46:51;;;;;;;;;;;;;;;;;;5051763;28;4682;-56
2023/11/16 11:49:16;;;;;;;;;;;;;;;;;;5032589;28;5595;-56
2023/11/16 11:51:42;;;;;;;;;;;;;;;;;;5049877;28;4589;-55
2023/11/16 11:57:31;;;;;;;;;;;;;;;;;;5044592;28;4505;-56
2023/11/16 11:59:56;;;;;;;;;;;;;;;;;;5050476;28;1009;-55
2023/11/16 12:02:22;;;;;;;;;;;;;;;;;;5048761;28;5026;-58
2023/11/16 12:04:47;;;;;;;;;;;;;;;;;;5051871;28;5020;-56
2023/11/16 12:07:42;;;;;;;;;;;;;;;;;;5052240;28;5021;-54
2023/11/16 12:10:11;;;;;;;;;;;;;;;;;;5048856;28;5014;-56
2023/11/16 12:12:39;;;;;;;;;;;;;;;;;;5033839;28;4515;-56
2023/11/16 12:15:05;;;;;;;;;;;;;;;;;;5053395;28;5050;-55
2023/11/16 12:18:10;;;;;;;;;;;;;;;;;;5030326;28;1248;-56
2023/11/16 12:26:58;;;;;;;;;;;;;;;;;;5056762;28;4629;-55
2023/11/16 12:39:31;;;;;;;;;;;;;;;;;;5052131;28;4692;-57
2023/11/16 12:42:09;;;;;;;;;;;;;;;;;;5039065;28;1406;-53
2023/11/16 12:44:35;;;;;;;;;;;;;;;;;;5051751;28;5150;-56
2023/11/16 12:47:02;;;;;;;;;;;;;;;;;;5054520;28;4492;-55
2023/11/16 12:49:27;;;;;;;;;;;;;;;;;;5035560;28;5007;-55
2023/11/16 12:51:52;;;;;;;;;;;;;;;;;;5054414;28;4613;-56
2023/11/16 13:06:46;;;;;;;;;;;;;;;;;;5064003;28;5259;-56
2023/11/16 13:09:12;;;;;;;;;;;;;;;;;;5054930;28;5277;-56
2023/11/16 13:11:38;;;;;;;;;;;;;;;;;;5019558;28;1532;-56
2023/11/16 13:14:03;;;;;;;;;;;;;;;;;;5054935;28;4420;-56
2023/11/16 13:16:28;;;;;;;;;;;;;;;;;;5054445;28;4962;-56
2023/11/16 13:18:54;;;;;;;;;;;;;;;;;;5056590;28;4968;-55
2023/11/16 13:21:19;;;;;;;;;;;;;;;;;;5054960;28;5037;-56
2023/11/16 13:24:01;;;;;;;;;;;;;;;;;;5055532;28;1205;-54
2023/11/16 13:26:30;;;;;;;;;;;;;;;;;;5032986;28;6416;-56
2023/11/16 13:28:55;;;;;;;;;;;;;;;;;;5054258;28;4487;-57
2023/11/16 13:31:22;;;;;;;;;;;;;;;;;;5049054;28;4754;-55
2023/11/16 13:33:47;;;;;;;;;;;;;;;;;;5035111;28;5023;-57
2023/11/16 13:42:42;;;;;;;;;;;;;;;;;;5058613;28;4580;-55
2023/11/16 13:45:12;;;;;;;;;;;;;;;;;;5053045;28;5764;-56
2023/11/16 13:47:37;;;;;;;;;;;;;;;;;;5037254;28;1431;-56
2023/11/16 13:53:05;;;;;;;;;;;;;;;;;;5061323;28;5097;-55
2023/11/16 13:58:52;;;;;;;;;;;;;;;;;;5054101;28;5037;-55
2023/11/16 14:01:18;;;;;;;;;;;;;;;;;;5046950;28;5875;-54
2023/11/16 14:03:43;;;;;;;;;;;;;;;;;;5050584;28;5012;-55
2023/11/16 14:06:09;;;;;;;;;;;;;;;;;;5049108;28;5017;-55
2023/11/16 14:08:57;;;;;;;;;;;;;;;;;;5057905;28;975;-55
2023/11/16 14:11:28;;;;;;;;;;;;;;;;;;5062333;28;4951;-56
2023/11/16 14:13:54;;;;;;;;;;;;;;;;;;5058013;28;5007;-55
2023/11/16 14:16:19;;;;;;;;;;;;;;;;;;5055461;28;6448;-56
2023/11/16 14:18:45;;;;;;;;;;;;;;;;;;5051214;28;5159;-54
2023/11/16 14:21:12;;;;;;;;;;;;;;;;;;5050085;28;5590;-56
2023/11/16 14:23:38;;;;;;;;;;;;;;;;;;5039346;28;1403;-56
2023/11/16 14:29:05;;;;;;;;;;;;;;;;;;5052679;28;4440;-56
2023/11/16 14:37:36;;;;;;;;;;;;;;;;;;5055156;28;5016;-56
2023/11/16 14:40:02;;;;;;;;;;;;;;;;;;5053170;28;4867;-56
2023/11/16 14:42:27;;;;;;;;;;;;;;;;;;5053174;28;5013;-56
2023/11/16 14:44:54;;;;;;;;;;;;;;;;;;5037731;28;981;-56
2023/11/16 14:53:21;;;;;;;;;;;;;;;;;;5055415;28;5075;-56
2023/11/16 14:55:46;;;;;;;;;;;;;;;;;;5074377;28;4410;-55
2023/11/16 14:58:11;;;;;;;;;;;;;;;;;;5074161;28;4837;-55
2023/11/16 15:00:37;;;;;;;;;;;;;;;;;;5074296;28;5328;-54
2023/11/16 15:03:04;;;;;;;;;;;;;;;;;;5074552;28;5040;-54
2023/11/16 15:05:29;;;;;;;;;;;;;;;;;;5075118;28;1061;-54
2023/11/16 15:07:56;;;;;;;;;;;;;;;;;;5074008;28;4830;-54
2023/11/16 15:10:36;;;;;;;;;;;;;;;;;;5071796;28;4964;-55
2023/11/16 15:16:35;;;;;;;;;;;;;;;;;;5054386;28;5412;-53
2023/11/16 15:22:03;;;;;;;;;;;;;;;;;;5054185;28;4591;-55
2023/11/16 15:27:31;;;;;;;;;;;;;;;;;;5054189;28;5029;-55
2023/11/16 15:29:56;;;;;;;;;;;;;;;;;;5053185;28;1103;-56
2023/11/16 15:32:21;;;;;;;;;;;;;;;;;;5053984;28;4589;-53
2023/11/16 15:34:47;;;;;;;;;;;;;;;;;;5052125;28;4646;-55
2023/11/16 15:40:15;;;;;;;;;;;;;;;;;;5054127;28;5037;-56
2023/11/16 15:42:41;;;;;;;;;;;;;;;;;;5053723;28;4896;-55
2023/11/16 15:45:07;;;;;;;;;;;;;;;;;;5055551;28;5148;-55
2023/11/16 15:47:33;;;;;;;;;;;;;;;;;;5074247;28;933;-55
2023/11/16 15:49:59;;;;;;;;;;;;;;;;;;5054716;28;5044;-55
2023/11/16 15:52:24;;;;;;;;;;;;;;;;;;5073926;28;4451;-54
2023/11/16 15:54:50;;;;;;;;;;;;;;;;;;5053681;28;4973;-55
2023/11/16 16:00:21;;;;;;;;;;;;;;;;;;5073699;28;4570;-60
2023/11/16 16:02:47;;;;;;;;;;;;;;;;;;5074133;28;1091;-54
2023/11/16 16:05:12;;;;;;;;;;;;;;;;;;5073962;28;5059;-53
2023/11/16 16:07:38;;;;;;;;;;;;;;;;;;5056183;28;5082;-53
2023/11/16 16:13:06;;;;;;;;;;;;;;;;;;5053534;28;4580;-54
2023/11/16 16:18:35;;;;;;;;;;;;;;;;;;5053698;28;4627;-54
2023/11/16 16:21:00;;;;;;;;;;;;;;;;;;5052302;28;1237;-54
2023/11/16 16:23:25;;;;;;;;;;;;;;;;;;5066060;28;4411;-55
2023/11/16 16:25:51;;;;;;;;;;;;;;;;;;5060111;28;5020;-59
2023/11/16 16:31:19;;;;;;;;;;;;;;;;;;5053356;28;5269;-54
2023/11/16 16:33:45;;;;;;;;;;;;;;;;;;5070722;28;5111;-54
2023/11/16 16:36:10;;;;;;;;;;;;;;;;;;5072980;28;4497;-54
2023/11/16 16:38:35;;;;;;;;;;;;;;;;;;5074386;28;1142;-52
2023/11/16 16:50:09;;;;;;;;;;;;;;;;;;5063526;28;5134;-56
2023/11/16 16:52:36;;;;;;;;;;;;;;;;;;5048305;28;4750;-55
2023/11/16 16:55:01;;;;;;;;;;;;;;;;;;5032010;28;4854;-56
2023/11/16 16:57:28;;;;;;;;;;;;;;;;;;5026938;28;4535;-57
2023/11/16 16:59:53;;;;;;;;;;;;;;;;;;5035272;28;3078;-55
2023/11/16 17:02:18;;;;;;;;;;;;;;;;;;5034367;28;4712;-53
2023/11/16 17:04:46;;;;;;;;;;;;;;;;;;4997843;28;5114;-56
2023/11/16 17:07:12;;;;;;;;;;;;;;;;;;5029233;28;4682;-55
2023/11/16 17:09:37;;;;;;;;;;;;;;;;;;5027604;28;5076;-55
2023/11/16 17:12:03;;;;;;;;;;;;;;;;;;5035402;28;1184;-54
2023/11/16 17:14:28;;;;;;;;;;;;;;;;;;5036947;28;4884;-54
2023/11/16 17:16:53;;;;;;;;;;;;;;;;;;5030232;28;5061;-55
2023/11/16 17:22:21;;;;;;;;;;;;;;;;;;5041358;28;4495;-55
2023/11/16 17:24:47;;;;;;;;;;;;;;;;;;5051681;28;5079;-56
2023/11/16 17:27:12;;;;;;;;;;;;;;;;;;5027090;28;5070;-55
2023/11/16 17:29:37;;;;;;;;;;;;;;;;;;5030779;28;4885;-53
2023/11/16 17:32:03;;;;;;;;;;;;;;;;;;5028204;28;4554;-54
2023/11/16 17:34:28;;;;;;;;;;;;;;;;;;5036419;28;4644;-55
2023/11/16 17:36:54;;;;;;;;;;;;;;;;;;5031706;28;5104;-56
2023/11/16 17:39:20;;;;;;;;;;;;;;;;;;5021321;28;5169;-52
2023/11/16 17:41:46;;;;;;;;;;;;;;;;;;5041652;28;2858;-56
2023/11/16 17:44:12;;;;;;;;;;;;;;;;;;5034258;28;5097;-54
2023/11/16 17:46:37;;;;;;;;;;;;;;;;;;5034585;28;5096;-54
2023/11/16 17:49:04;;;;;;;;;;;;;;;;;;5039549;28;5087;-53
2023/11/16 17:51:31;;;;;;;;;;;;;;;;;;5038466;28;5253;-54
2023/11/16 17:53:57;;;;;;;;;;;;;;;;;;5073850;28;1086;-54
2023/11/16 18:02:46;;;;;;;;;;;;;;;;;;5054845;28;4580;-54
2023/11/16 18:05:28;;;;;;;;;;;;;;;;;;5058000;28;4893;-55
2023/11/16 18:07:53;;;;;;;;;;;;;;;;;;5051926;28;4856;-57
2023/11/16 18:13:22;;;;;;;;;;;;;;;;;;5055486;28;4556;-54
2023/11/16 18:15:47;;;;;;;;;;;;;;;;;;5075363;28;5005;-60
2023/11/16 18:18:15;;;;;;;;;;;;;;;;;;5062338;28;4507;-55
2023/11/16 18:20:40;;;;;;;;;;;;;;;;;;5033587;28;1245;-54
2023/11/16 18:23:07;;;;;;;;;;;;;;;;;;5061554;28;4925;-54
2023/11/16 18:25:39;;;;;;;;;;;;;;;;;;5059549;28;5068;-55
2023/11/16 18:28:05;;;;;;;;;;;;;;;;;;5035683;28;5088;-54
2023/11/16 18:30:40;;;;;;;;;;;;;;;;;;5055650;28;4496;-55
2023/11/16 18:33:07;;;;;;;;;;;;;;;;;;5050953;28;4939;-57
2023/11/16 18:35:39;;;;;;;;;;;;;;;;;;5057609;28;1973;-57
2023/11/16 18:38:05;;;;;;;;;;;;;;;;;;5057791;28;4458;-54
2023/11/16 18:40:30;;;;;;;;;;;;;;;;;;5020725;28;4502;-55
2023/11/16 18:42:56;;;;;;;;;;;;;;;;;;5073689;28;4977;-55
2023/11/16 18:45:21;;;;;;;;;;;;;;;;;;5071168;28;4976;-54
2023/11/16 18:47:47;;;;;;;;;;;;;;;;;;5069945;28;1215;-54
2023/11/16 18:50:12;;;;;;;;;;;;;;;;;;5055409;28;5784;-55
2023/11/16 18:52:38;;;;;;;;;;;;;;;;;;5095375;28;5019;-53
2023/11/16 18:55:03;;;;;;;;;;;;;;;;;;5067881;28;5168;-55
2023/11/16 18:57:29;;;;;;;;;;;;;;;;;;5052945;28;4695;-55
2023/11/16 18:59:57;;;;;;;;;;;;;;;;;;5020858;28;1063;-56
2023/11/16 19:02:22;;;;;;;;;;;;;;;;;;5054678;28;4975;-53
2023/11/16 19:04:48;;;;;;;;;;;;;;;;;;5061723;28;5886;-55
2023/11/16 19:10:30;;;;;;;;;;;;;;;;;;5061481;28;5323;-54
2023/11/16 19:22:06;;;;;;;;;;;;;;;;;;5050824;28;5032;-57
2023/11/16 19:24:37;;;;;;;;;;;;;;;;;;5036262;28;4445;-56
2023/11/16 19:27:03;;;;;;;;;;;;;;;;;;5052470;28;4653;-55
2023/11/16 19:29:31;;;;;;;;;;;;;;;;;;5054605;28;1152;-56
2023/11/16 19:38:02;;;;;;;;;;;;;;;;;;5049665;28;5754;-55
2023/11/16 19:40:27;;;;;;;;;;;;;;;;;;5051754;28;4485;-54
2023/11/16 19:43:02;;;;;;;;;;;;;;;;;;5046549;28;4807;-55
2023/11/16 19:48:22;;;;;;;;;;;;;;;;;;5083769;28;4742;-57
2023/11/16 19:50:53;;;;;;;;;;;;;;;;;;5039403;28;1150;-56
2023/11/16 19:53:20;;;;;;;;;;;;;;;;;;5065430;28;4947;-55
2023/11/16 19:55:45;;;;;;;;;;;;;;;;;;5070366;28;4878;-55
2023/11/16 19:58:11;;;;;;;;;;;;;;;;;;5065285;28;5031;-55
2023/11/16 20:00:41;;;;;;;;;;;;;;;;;;5034034;28;4611;-56
2023/11/16 20:06:40;;;;;;;;;;;;;;;;;;5053842;28;4578;-56
2023/11/16 20:09:08;;;;;;;;;;;;;;;;;;5053733;28;4689;-56
2023/11/16 20:11:33;;;;;;;;;;;;;;;;;;5054080;28;1288;-59
2023/11/16 20:13:58;;;;;;;;;;;;;;;;;;5035853;28;5051;-56
2023/11/16 20:19:28;;;;;;;;;;;;;;;;;;5053869;28;5017;-56
2023/11/16 20:21:53;;;;;;;;;;;;;;;;;;5053484;28;4951;-57
2023/11/16 20:24:19;;;;;;;;;;;;;;;;;;5053538;28;4433;-57
2023/11/16 20:26:48;;;;;;;;;;;;;;;;;;5064145;28;1160;-56
2023/11/16 20:35:40;;;;;;;;;;;;;;;;;;5054422;28;4744;-56
2023/11/16 20:38:05;;;;;;;;;;;;;;;;;;5035286;28;4970;-57
2023/11/16 20:40:30;;;;;;;;;;;;;;;;;;5053447;28;4900;-56
2023/11/16 20:42:56;;;;;;;;;;;;;;;;;;5035411;28;4924;-56
2023/11/16 20:48:42;;;;;;;;;;;;;;;;;;5053816;28;4877;-57
2023/11/16 20:51:08;;;;;;;;;;;;;;;;;;5052463;28;4962;-57
2023/11/16 20:53:33;;;;;;;;;;;;;;;;;;5050257;28;3039;-56
2023/11/16 20:55:58;;;;;;;;;;;;;;;;;;5056635;28;5003;-56
2023/11/16 20:58:39;;;;;;;;;;;;;;;;;;5069664;28;4989;-55
2023/11/16 21:01:06;;;;;;;;;;;;;;;;;;5076342;28;4439;-55
2023/11/16 21:03:33;;;;;;;;;;;;;;;;;;5043465;28;5075;-61
2023/11/16 21:06:15;;;;;;;;;;;;;;;;;;5058382;28;1048;-58
2023/11/16 21:08:40;;;;;;;;;;;;;;;;;;5052049;28;5017;-59
2023/11/16 21:11:08;;;;;;;;;;;;;;;;;;5055922;28;4461;-61
2023/11/16 21:13:34;;;;;;;;;;;;;;;;;;5048114;28;5116;-61
2023/11/16 21:18:50;;;;;;;;;;;;;;;;;;5055434;28;4477;-61
2023/11/16 21:21:16;;;;;;;;;;;;;;;;;;5053680;28;4622;-61
2023/11/16 21:23:42;;;;;;;;;;;;;;;;;;5057832;28;1210;-61
2023/11/16 21:41:19;;;;;;;;;;;;;;;;;;5076987;28;5034;-69
2023/11/16 21:46:48;;;;;;;;;;;;;;;;;;5076678;28;4656;-70
2023/11/16 21:49:14;;;;;;;;;;;;;;;;;;5058245;28;4456;-68
2023/11/16 21:57:45;;;;;;;;;;;;;;;;;;5076140;28;4511;-69
2023/11/16 22:00:13;;;;;;;;;;;;;;;;;;5074521;28;4581;-68
2023/11/16 22:02:38;;;;;;;;;;;;;;;;;;5055772;28;1921;-69
2023/11/16 22:05:09;;;;;;;;;;;;;;;;;;5056048;28;5130;-70
2023/11/16 22:10:37;;;;;;;;;;;;;;;;;;5056423;28;5109;-70
2023/11/16 22:13:03;;;;;;;;;;;;;;;;;;5055612;28;4444;-69
2023/11/16 22:15:29;;;;;;;;;;;;;;;;;;5055640;28;4620;-69
2023/11/16 22:17:55;;;;;;;;;;;;;;;;;;5056186;28;990;-70
2023/11/16 22:23:23;;;;;;;;;;;;;;;;;;5055884;28;5124;-69